sensor_id;sensor_type;location;lat;lon;timestamp;P1;durP1;ratioP1;P2;durP2;ratioP2
4650;SDS011;2338;49.602;8.722;2023-03-31T00:01:12;9.53;;;1.73;;
4650;SDS011;2338;49.602;8.722;2023-03-31T00:03:58;9.07;;;2.10;;
4650;SDS011;2338;49.602;8.722;2023-03-31T00:06:47;8.20;;;2.10;;
4650;SDS011;2338;49.602;8.722;2023-03-31T00:09:33;7.43;;;1.53;;
4650;SDS011;2338;49.602;8.722;2023-03-31T00:12:20;5.57;;;2.10;;
4650;SDS011;2338;49.602;8.722;2023-03-31T00:15:06;7.33;;;1.77;;
4650;SDS011;2338;49.602;8.722;2023-03-31T00:17:53;7.57;;;2.50;;
4650;SDS011;2338;49.602;8.722;2023-03-31T00:20:43;8.70;;;1.70;;
4650;SDS011;2338;49.602;8.722;2023-03-31T00:23:28;9.77;;;2.80;;
4650;SDS011;2338;49.602;8.722;2023-03-31T00:26:14;5.70;;;2.00;;
4650;SDS011;2338;49.602;8.722;2023-03-31T00:29:00;8.67;;;2.53;;
4650;SDS011;2338;49.602;8.722;2023-03-31T00:31:46;6.00;;;1.63;;
4650;SDS011;2338;49.602;8.722;2023-03-31T00:34:33;13.93;;;2.43;;
4650;SDS011;2338;49.602;8.722;2023-03-31T00:37:19;8.77;;;1.97;;
4650;SDS011;2338;49.602;8.722;2023-03-31T00:40:05;4.70;;;2.07;;
4650;SDS011;2338;49.602;8.722;2023-03-31T00:42:52;10.10;;;2.10;;
4650;SDS011;2338;49.602;8.722;2023-03-31T00:45:38;10.73;;;2.20;;
4650;SDS011;2338;49.602;8.722;2023-03-31T00:48:24;11.87;;;2.50;;
4650;SDS011;2338;49.602;8.722;2023-03-31T00:51:12;5.20;;;2.10;;
4650;SDS011;2338;49.602;8.722;2023-03-31T00:53:59;6.70;;;1.93;;
4650;SDS011;2338;49.602;8.722;2023-03-31T00:56:49;5.80;;;1.80;;
4650;SDS011;2338;49.602;8.722;2023-03-31T00:59:38;7.67;;;2.20;;
4650;SDS011;2338;49.602;8.722;2023-03-31T01:02:26;7.83;;;2.53;;
4650;SDS011;2338;49.602;8.722;2023-03-31T01:05:13;11.50;;;2.67;;
4650;SDS011;2338;49.602;8.722;2023-03-31T01:08:00;8.10;;;2.17;;
4650;SDS011;2338;49.602;8.722;2023-03-31T01:10:49;4.30;;;1.63;;
4650;SDS011;2338;49.602;8.722;2023-03-31T01:13:38;8.50;;;1.90;;
4650;SDS011;2338;49.602;8.722;2023-03-31T01:16:24;11.53;;;1.90;;
4650;SDS011;2338;49.602;8.722;2023-03-31T01:19:12;8.93;;;2.50;;
4650;SDS011;2338;49.602;8.722;2023-03-31T01:22:27;8.67;;;3.00;;
4650;SDS011;2338;49.602;8.722;2023-03-31T01:28:58;6.20;;;2.23;;
4650;SDS011;2338;49.602;8.722;2023-03-31T01:31:57;6.70;;;2.30;;
4650;SDS011;2338;49.602;8.722;2023-03-31T01:35:05;15.57;;;2.20;;
4650;SDS011;2338;49.602;8.722;2023-03-31T01:41:42;9.60;;;2.17;;
4650;SDS011;2338;49.602;8.722;2023-03-31T01:44:38;10.33;;;2.00;;
4650;SDS011;2338;49.602;8.722;2023-03-31T01:47:29;7.30;;;2.47;;
4650;SDS011;2338;49.602;8.722;2023-03-31T01:50:24;6.80;;;1.90;;
4650;SDS011;2338;49.602;8.722;2023-03-31T01:53:15;6.90;;;2.17;;
4650;SDS011;2338;49.602;8.722;2023-03-31T01:56:06;6.73;;;1.77;;
4650;SDS011;2338;49.602;8.722;2023-03-31T01:59:01;9.73;;;2.53;;
4650;SDS011;2338;49.602;8.722;2023-03-31T02:01:51;9.67;;;2.60;;
4650;SDS011;2338;49.602;8.722;2023-03-31T02:04:44;12.20;;;2.20;;
4650;SDS011;2338;49.602;8.722;2023-03-31T02:07:33;9.83;;;1.80;;
4650;SDS011;2338;49.602;8.722;2023-03-31T02:10:21;7.20;;;1.77;;
4650;SDS011;2338;49.602;8.722;2023-03-31T02:13:10;7.83;;;2.20;;
4650;SDS011;2338;49.602;8.722;2023-03-31T02:15:59;14.23;;;1.93;;
4650;SDS011;2338;49.602;8.722;2023-03-31T02:18:51;9.53;;;2.20;;
4650;SDS011;2338;49.602;8.722;2023-03-31T02:21:45;13.37;;;2.40;;
4650;SDS011;2338;49.602;8.722;2023-03-31T02:24:33;14.00;;;3.10;;
4650;SDS011;2338;49.602;8.722;2023-03-31T02:27:21;6.73;;;2.20;;
4650;SDS011;2338;49.602;8.722;2023-03-31T02:30:10;8.93;;;1.90;;
4650;SDS011;2338;49.602;8.722;2023-03-31T02:32:58;10.60;;;2.07;;
4650;SDS011;2338;49.602;8.722;2023-03-31T02:35:47;9.33;;;2.27;;
4650;SDS011;2338;49.602;8.722;2023-03-31T02:38:34;8.70;;;3.10;;
4650;SDS011;2338;49.602;8.722;2023-03-31T02:41:21;7.87;;;2.20;;
4650;SDS011;2338;49.602;8.722;2023-03-31T02:44:07;4.20;;;1.53;;
4650;SDS011;2338;49.602;8.722;2023-03-31T02:46:53;10.93;;;2.60;;
4650;SDS011;2338;49.602;8.722;2023-03-31T02:49:40;6.90;;;2.20;;
4650;SDS011;2338;49.602;8.722;2023-03-31T02:52:49;8.50;;;2.50;;
4650;SDS011;2338;49.602;8.722;2023-03-31T02:55:48;13.70;;;2.23;;
4650;SDS011;2338;49.602;8.722;2023-03-31T02:58:47;6.10;;;2.10;;
4650;SDS011;2338;49.602;8.722;2023-03-31T03:01:49;8.93;;;2.00;;
4650;SDS011;2338;49.602;8.722;2023-03-31T03:04:47;9.90;;;1.97;;
4650;SDS011;2338;49.602;8.722;2023-03-31T03:07:56;7.20;;;2.60;;
4650;SDS011;2338;49.602;8.722;2023-03-31T03:10:52;6.90;;;1.93;;
4650;SDS011;2338;49.602;8.722;2023-03-31T03:13:47;9.47;;;1.80;;
4650;SDS011;2338;49.602;8.722;2023-03-31T03:16:36;7.27;;;2.30;;
4650;SDS011;2338;49.602;8.722;2023-03-31T03:19:24;9.10;;;1.80;;
4650;SDS011;2338;49.602;8.722;2023-03-31T03:22:11;5.40;;;1.90;;
4650;SDS011;2338;49.602;8.722;2023-03-31T03:24:56;12.17;;;3.10;;
4650;SDS011;2338;49.602;8.722;2023-03-31T03:27:42;10.80;;;4.80;;
4650;SDS011;2338;49.602;8.722;2023-03-31T03:30:28;10.80;;;2.20;;
4650;SDS011;2338;49.602;8.722;2023-03-31T03:33:14;9.70;;;1.93;;
4650;SDS011;2338;49.602;8.722;2023-03-31T03:36:00;9.03;;;1.80;;
4650;SDS011;2338;49.602;8.722;2023-03-31T03:38:47;6.63;;;1.90;;
4650;SDS011;2338;49.602;8.722;2023-03-31T03:41:33;10.47;;;2.43;;
4650;SDS011;2338;49.602;8.722;2023-03-31T03:44:19;4.47;;;1.37;;
4650;SDS011;2338;49.602;8.722;2023-03-31T03:47:05;11.30;;;2.43;;
4650;SDS011;2338;49.602;8.722;2023-03-31T03:49:50;11.47;;;2.10;;
4650;SDS011;2338;49.602;8.722;2023-03-31T03:52:36;5.87;;;2.30;;
4650;SDS011;2338;49.602;8.722;2023-03-31T03:55:23;4.90;;;1.40;;
4650;SDS011;2338;49.602;8.722;2023-03-31T03:58:09;5.23;;;1.73;;
4650;SDS011;2338;49.602;8.722;2023-03-31T04:00:55;10.67;;;2.30;;
4650;SDS011;2338;49.602;8.722;2023-03-31T04:03:41;8.50;;;2.50;;
4650;SDS011;2338;49.602;8.722;2023-03-31T04:06:27;6.53;;;2.20;;
4650;SDS011;2338;49.602;8.722;2023-03-31T04:09:12;9.13;;;1.40;;
4650;SDS011;2338;49.602;8.722;2023-03-31T04:11:59;5.87;;;2.50;;
4650;SDS011;2338;49.602;8.722;2023-03-31T04:14:45;10.43;;;2.00;;
4650;SDS011;2338;49.602;8.722;2023-03-31T04:17:30;5.93;;;1.50;;
4650;SDS011;2338;49.602;8.722;2023-03-31T04:20:17;13.47;;;2.20;;
4650;SDS011;2338;49.602;8.722;2023-03-31T04:23:03;6.90;;;1.50;;
4650;SDS011;2338;49.602;8.722;2023-03-31T04:25:52;7.20;;;1.40;;
4650;SDS011;2338;49.602;8.722;2023-03-31T04:28:39;10.63;;;1.80;;
4650;SDS011;2338;49.602;8.722;2023-03-31T04:31:29;4.80;;;1.73;;
4650;SDS011;2338;49.602;8.722;2023-03-31T04:34:15;9.03;;;2.00;;
4650;SDS011;2338;49.602;8.722;2023-03-31T04:37:00;5.10;;;1.40;;
4650;SDS011;2338;49.602;8.722;2023-03-31T04:39:46;4.10;;;1.40;;
4650;SDS011;2338;49.602;8.722;2023-03-31T04:42:33;7.93;;;1.40;;
4650;SDS011;2338;49.602;8.722;2023-03-31T04:45:20;6.17;;;2.03;;
4650;SDS011;2338;49.602;8.722;2023-03-31T04:48:05;6.37;;;1.87;;
4650;SDS011;2338;49.602;8.722;2023-03-31T04:50:51;7.50;;;2.20;;
4650;SDS011;2338;49.602;8.722;2023-03-31T04:53:37;6.70;;;2.00;;
4650;SDS011;2338;49.602;8.722;2023-03-31T04:56:23;4.83;;;1.77;;
4650;SDS011;2338;49.602;8.722;2023-03-31T04:59:09;5.13;;;1.47;;
4650;SDS011;2338;49.602;8.722;2023-03-31T05:01:56;6.27;;;2.00;;
4650;SDS011;2338;49.602;8.722;2023-03-31T05:04:42;12.10;;;2.00;;
4650;SDS011;2338;49.602;8.722;2023-03-31T05:07:28;15.13;;;2.53;;
4650;SDS011;2338;49.602;8.722;2023-03-31T05:10:14;8.43;;;1.93;;
4650;SDS011;2338;49.602;8.722;2023-03-31T05:12:59;11.57;;;2.23;;
4650;SDS011;2338;49.602;8.722;2023-03-31T05:15:45;8.83;;;1.70;;
4650;SDS011;2338;49.602;8.722;2023-03-31T05:18:35;8.90;;;2.00;;
4650;SDS011;2338;49.602;8.722;2023-03-31T05:21:21;6.63;;;1.40;;
4650;SDS011;2338;49.602;8.722;2023-03-31T05:24:09;10.00;;;2.30;;
4650;SDS011;2338;49.602;8.722;2023-03-31T05:26:55;11.17;;;2.80;;
4650;SDS011;2338;49.602;8.722;2023-03-31T05:29:41;9.63;;;2.23;;
4650;SDS011;2338;49.602;8.722;2023-03-31T05:32:27;7.77;;;1.97;;
4650;SDS011;2338;49.602;8.722;2023-03-31T05:35:14;8.87;;;2.10;;
4650;SDS011;2338;49.602;8.722;2023-03-31T05:38:00;11.20;;;2.50;;
4650;SDS011;2338;49.602;8.722;2023-03-31T05:40:46;5.53;;;2.00;;
4650;SDS011;2338;49.602;8.722;2023-03-31T05:43:31;7.30;;;2.27;;
4650;SDS011;2338;49.602;8.722;2023-03-31T05:46:17;10.70;;;2.30;;
4650;SDS011;2338;49.602;8.722;2023-03-31T05:49:02;4.03;;;1.80;;
4650;SDS011;2338;49.602;8.722;2023-03-31T05:51:50;12.67;;;3.30;;
4650;SDS011;2338;49.602;8.722;2023-03-31T05:54:36;7.30;;;3.57;;
4650;SDS011;2338;49.602;8.722;2023-03-31T05:57:21;10.67;;;2.73;;
4650;SDS011;2338;49.602;8.722;2023-03-31T06:00:08;10.07;;;3.67;;
4650;SDS011;2338;49.602;8.722;2023-03-31T06:02:55;8.70;;;2.80;;
4650;SDS011;2338;49.602;8.722;2023-03-31T06:05:45;6.70;;;3.10;;
4650;SDS011;2338;49.602;8.722;2023-03-31T06:08:33;11.43;;;3.50;;
4650;SDS011;2338;49.602;8.722;2023-03-31T06:11:20;8.50;;;3.37;;
4650;SDS011;2338;49.602;8.722;2023-03-31T06:14:06;8.53;;;3.80;;
4650;SDS011;2338;49.602;8.722;2023-03-31T06:16:51;6.20;;;2.93;;
4650;SDS011;2338;49.602;8.722;2023-03-31T06:19:37;16.10;;;3.40;;
4650;SDS011;2338;49.602;8.722;2023-03-31T06:22:23;9.73;;;4.80;;
4650;SDS011;2338;49.602;8.722;2023-03-31T06:25:10;9.13;;;3.50;;
4650;SDS011;2338;49.602;8.722;2023-03-31T06:27:55;11.40;;;3.60;;
4650;SDS011;2338;49.602;8.722;2023-03-31T06:30:41;7.37;;;4.27;;
4650;SDS011;2338;49.602;8.722;2023-03-31T06:33:27;10.20;;;5.20;;
4650;SDS011;2338;49.602;8.722;2023-03-31T06:36:13;12.60;;;4.97;;
4650;SDS011;2338;49.602;8.722;2023-03-31T06:39:00;8.17;;;4.13;;
4650;SDS011;2338;49.602;8.722;2023-03-31T06:41:47;11.20;;;4.50;;
4650;SDS011;2338;49.602;8.722;2023-03-31T06:44:33;8.73;;;4.03;;
4650;SDS011;2338;49.602;8.722;2023-03-31T06:47:18;12.80;;;5.83;;
4650;SDS011;2338;49.602;8.722;2023-03-31T06:50:04;6.37;;;4.20;;
4650;SDS011;2338;49.602;8.722;2023-03-31T06:52:51;11.83;;;5.37;;
4650;SDS011;2338;49.602;8.722;2023-03-31T06:55:37;8.23;;;4.90;;
4650;SDS011;2338;49.602;8.722;2023-03-31T06:58:25;9.40;;;5.10;;
4650;SDS011;2338;49.602;8.722;2023-03-31T07:01:11;10.43;;;5.00;;
4650;SDS011;2338;49.602;8.722;2023-03-31T07:03:56;10.90;;;5.00;;
4650;SDS011;2338;49.602;8.722;2023-03-31T07:06:42;10.47;;;5.27;;
4650;SDS011;2338;49.602;8.722;2023-03-31T07:09:28;8.50;;;5.53;;
4650;SDS011;2338;49.602;8.722;2023-03-31T07:12:14;11.13;;;5.40;;
4650;SDS011;2338;49.602;8.722;2023-03-31T07:15:01;12.50;;;5.13;;
4650;SDS011;2338;49.602;8.722;2023-03-31T07:17:47;18.97;;;5.83;;
4650;SDS011;2338;49.602;8.722;2023-03-31T07:20:33;10.37;;;5.10;;
4650;SDS011;2338;49.602;8.722;2023-03-31T07:23:20;10.27;;;5.20;;
4650;SDS011;2338;49.602;8.722;2023-03-31T07:26:06;10.00;;;5.70;;
4650;SDS011;2338;49.602;8.722;2023-03-31T07:28:52;14.57;;;5.90;;
4650;SDS011;2338;49.602;8.722;2023-03-31T07:31:40;7.80;;;4.80;;
4650;SDS011;2338;49.602;8.722;2023-03-31T07:34:26;13.63;;;4.93;;
4650;SDS011;2338;49.602;8.722;2023-03-31T07:37:11;10.60;;;5.73;;
4650;SDS011;2338;49.602;8.722;2023-03-31T07:39:56;9.87;;;5.33;;
4650;SDS011;2338;49.602;8.722;2023-03-31T07:42:42;8.57;;;4.00;;
4650;SDS011;2338;49.602;8.722;2023-03-31T07:45:29;7.80;;;4.07;;
4650;SDS011;2338;49.602;8.722;2023-03-31T07:48:17;10.40;;;4.30;;
4650;SDS011;2338;49.602;8.722;2023-03-31T07:51:02;7.27;;;4.00;;
4650;SDS011;2338;49.602;8.722;2023-03-31T07:53:48;8.47;;;4.40;;
4650;SDS011;2338;49.602;8.722;2023-03-31T07:56:35;13.27;;;4.43;;
4650;SDS011;2338;49.602;8.722;2023-03-31T07:59:21;8.60;;;5.13;;
4650;SDS011;2338;49.602;8.722;2023-03-31T08:02:06;13.07;;;5.10;;
4650;SDS011;2338;49.602;8.722;2023-03-31T08:04:55;13.60;;;5.00;;
4650;SDS011;2338;49.602;8.722;2023-03-31T08:07:41;8.90;;;4.63;;
4650;SDS011;2338;49.602;8.722;2023-03-31T08:10:29;9.90;;;4.77;;
4650;SDS011;2338;49.602;8.722;2023-03-31T08:13:14;12.07;;;4.57;;
4650;SDS011;2338;49.602;8.722;2023-03-31T08:16:00;14.70;;;5.60;;
4650;SDS011;2338;49.602;8.722;2023-03-31T08:18:46;9.70;;;4.97;;
4650;SDS011;2338;49.602;8.722;2023-03-31T08:21:33;8.10;;;4.30;;
4650;SDS011;2338;49.602;8.722;2023-03-31T08:24:18;9.60;;;5.70;;
4650;SDS011;2338;49.602;8.722;2023-03-31T08:27:04;10.83;;;5.30;;
4650;SDS011;2338;49.602;8.722;2023-03-31T08:29:50;8.93;;;4.57;;
4650;SDS011;2338;49.602;8.722;2023-03-31T08:32:36;13.00;;;5.40;;
4650;SDS011;2338;49.602;8.722;2023-03-31T08:35:21;12.30;;;5.30;;
4650;SDS011;2338;49.602;8.722;2023-03-31T08:38:08;11.00;;;5.00;;
4650;SDS011;2338;49.602;8.722;2023-03-31T08:40:57;12.27;;;4.93;;
4650;SDS011;2338;49.602;8.722;2023-03-31T08:43:44;14.60;;;5.60;;
4650;SDS011;2338;49.602;8.722;2023-03-31T08:46:33;10.20;;;4.73;;
4650;SDS011;2338;49.602;8.722;2023-03-31T08:49:19;13.13;;;4.60;;
4650;SDS011;2338;49.602;8.722;2023-03-31T08:52:08;9.27;;;4.13;;
4650;SDS011;2338;49.602;8.722;2023-03-31T08:55:00;12.53;;;4.47;;
4650;SDS011;2338;49.602;8.722;2023-03-31T08:57:51;10.30;;;4.60;;
4650;SDS011;2338;49.602;8.722;2023-03-31T09:00:44;6.17;;;3.80;;
4650;SDS011;2338;49.602;8.722;2023-03-31T09:03:36;6.90;;;3.87;;
4650;SDS011;2338;49.602;8.722;2023-03-31T09:06:31;12.60;;;5.23;;
4650;SDS011;2338;49.602;8.722;2023-03-31T09:09:24;11.40;;;4.60;;
4650;SDS011;2338;49.602;8.722;2023-03-31T09:12:19;10.80;;;5.30;;
4650;SDS011;2338;49.602;8.722;2023-03-31T09:15:08;7.80;;;5.33;;
4650;SDS011;2338;49.602;8.722;2023-03-31T09:17:55;12.97;;;5.73;;
4650;SDS011;2338;49.602;8.722;2023-03-31T09:20:46;7.40;;;5.43;;
4650;SDS011;2338;49.602;8.722;2023-03-31T09:23:34;10.60;;;5.73;;
4650;SDS011;2338;49.602;8.722;2023-03-31T09:26:25;12.20;;;6.83;;
4650;SDS011;2338;49.602;8.722;2023-03-31T09:29:20;7.57;;;4.40;;
4650;SDS011;2338;49.602;8.722;2023-03-31T09:32:13;7.07;;;2.73;;
4650;SDS011;2338;49.602;8.722;2023-03-31T09:35:00;3.83;;;1.70;;
4650;SDS011;2338;49.602;8.722;2023-03-31T09:37:56;5.80;;;1.40;;
4650;SDS011;2338;49.602;8.722;2023-03-31T09:40:42;7.27;;;1.73;;
4650;SDS011;2338;49.602;8.722;2023-03-31T09:43:29;4.03;;;1.77;;
4650;SDS011;2338;49.602;8.722;2023-03-31T09:46:20;3.90;;;1.43;;
4650;SDS011;2338;49.602;8.722;2023-03-31T09:49:13;3.80;;;1.20;;
4650;SDS011;2338;49.602;8.722;2023-03-31T09:52:03;5.93;;;1.97;;
4650;SDS011;2338;49.602;8.722;2023-03-31T09:54:55;5.20;;;1.77;;
4650;SDS011;2338;49.602;8.722;2023-03-31T09:57:44;8.17;;;1.90;;
4650;SDS011;2338;49.602;8.722;2023-03-31T10:00:31;6.53;;;2.03;;
4650;SDS011;2338;49.602;8.722;2023-03-31T10:03:19;6.37;;;1.43;;
4650;SDS011;2338;49.602;8.722;2023-03-31T10:06:07;4.93;;;1.63;;
4650;SDS011;2338;49.602;8.722;2023-03-31T10:08:54;9.87;;;1.80;;
4650;SDS011;2338;49.602;8.722;2023-03-31T10:11:52;5.07;;;1.83;;
4650;SDS011;2338;49.602;8.722;2023-03-31T10:14:40;8.47;;;1.97;;
4650;SDS011;2338;49.602;8.722;2023-03-31T10:17:31;6.13;;;2.07;;
4650;SDS011;2338;49.602;8.722;2023-03-31T10:20:26;6.30;;;1.90;;
4650;SDS011;2338;49.602;8.722;2023-03-31T10:23:16;7.60;;;1.90;;
4650;SDS011;2338;49.602;8.722;2023-03-31T10:26:10;10.13;;;1.80;;
4650;SDS011;2338;49.602;8.722;2023-03-31T10:29:00;10.80;;;2.10;;
4650;SDS011;2338;49.602;8.722;2023-03-31T10:31:46;9.03;;;2.33;;
4650;SDS011;2338;49.602;8.722;2023-03-31T10:34:32;14.03;;;2.40;;
4650;SDS011;2338;49.602;8.722;2023-03-31T10:37:20;5.93;;;1.80;;
4650;SDS011;2338;49.602;8.722;2023-03-31T10:40:12;7.83;;;2.33;;
4650;SDS011;2338;49.602;8.722;2023-03-31T10:43:03;3.60;;;1.87;;
4650;SDS011;2338;49.602;8.722;2023-03-31T10:45:58;5.00;;;1.57;;
4650;SDS011;2338;49.602;8.722;2023-03-31T10:48:44;4.97;;;1.93;;
4650;SDS011;2338;49.602;8.722;2023-03-31T10:51:31;4.37;;;1.60;;
4650;SDS011;2338;49.602;8.722;2023-03-31T10:54:17;8.87;;;2.30;;
4650;SDS011;2338;49.602;8.722;2023-03-31T10:57:04;9.63;;;2.80;;
4650;SDS011;2338;49.602;8.722;2023-03-31T11:00:02;9.07;;;2.53;;
4650;SDS011;2338;49.602;8.722;2023-03-31T11:03:06;7.47;;;2.30;;
4650;SDS011;2338;49.602;8.722;2023-03-31T11:06:12;6.23;;;2.40;;
4650;SDS011;2338;49.602;8.722;2023-03-31T11:09:11;9.57;;;3.20;;
4650;SDS011;2338;49.602;8.722;2023-03-31T11:12:12;5.90;;;2.40;;
4650;SDS011;2338;49.602;8.722;2023-03-31T11:15:09;7.13;;;3.00;;
4650;SDS011;2338;49.602;8.722;2023-03-31T11:18:14;8.80;;;2.70;;
4650;SDS011;2338;49.602;8.722;2023-03-31T11:21:14;8.17;;;2.37;;
4650;SDS011;2338;49.602;8.722;2023-03-31T11:24:05;5.00;;;2.00;;
4650;SDS011;2338;49.602;8.722;2023-03-31T11:27:02;8.40;;;2.90;;
4650;SDS011;2338;49.602;8.722;2023-03-31T11:30:05;4.73;;;1.83;;
4650;SDS011;2338;49.602;8.722;2023-03-31T11:33:01;3.87;;;1.70;;
4650;SDS011;2338;49.602;8.722;2023-03-31T11:36:14;9.50;;;2.47;;
4650;SDS011;2338;49.602;8.722;2023-03-31T11:39:14;3.47;;;1.43;;
4650;SDS011;2338;49.602;8.722;2023-03-31T11:42:09;9.70;;;2.27;;
4650;SDS011;2338;49.602;8.722;2023-03-31T11:45:01;5.27;;;1.50;;
4650;SDS011;2338;49.602;8.722;2023-03-31T11:47:58;8.80;;;1.73;;
4650;SDS011;2338;49.602;8.722;2023-03-31T11:50:47;5.20;;;1.47;;
4650;SDS011;2338;49.602;8.722;2023-03-31T11:53:34;6.20;;;1.47;;
4650;SDS011;2338;49.602;8.722;2023-03-31T11:56:22;12.13;;;1.40;;
4650;SDS011;2338;49.602;8.722;2023-03-31T11:59:14;6.07;;;1.80;;
4650;SDS011;2338;49.602;8.722;2023-03-31T12:02:03;3.60;;;1.47;;
4650;SDS011;2338;49.602;8.722;2023-03-31T12:04:57;8.83;;;1.70;;
4650;SDS011;2338;49.602;8.722;2023-03-31T12:07:44;7.43;;;1.97;;
4650;SDS011;2338;49.602;8.722;2023-03-31T12:10:35;8.50;;;1.87;;
4650;SDS011;2338;49.602;8.722;2023-03-31T12:16:36;6.87;;;2.40;;
4650;SDS011;2338;49.602;8.722;2023-03-31T12:19:25;9.07;;;1.60;;
4650;SDS011;2338;49.602;8.722;2023-03-31T12:22:17;8.90;;;2.63;;
4650;SDS011;2338;49.602;8.722;2023-03-31T12:25:10;6.27;;;2.00;;
4650;SDS011;2338;49.602;8.722;2023-03-31T12:27:57;5.40;;;2.03;;
4650;SDS011;2338;49.602;8.722;2023-03-31T12:30:44;5.10;;;2.00;;
4650;SDS011;2338;49.602;8.722;2023-03-31T12:33:33;9.67;;;1.87;;
4650;SDS011;2338;49.602;8.722;2023-03-31T12:36:25;13.10;;;2.73;;
4650;SDS011;2338;49.602;8.722;2023-03-31T12:39:23;20.00;;;2.93;;
4650;SDS011;2338;49.602;8.722;2023-03-31T12:42:28;8.20;;;2.60;;
4650;SDS011;2338;49.602;8.722;2023-03-31T12:45:32;11.10;;;2.43;;
4650;SDS011;2338;49.602;8.722;2023-03-31T12:48:29;6.83;;;1.83;;
4650;SDS011;2338;49.602;8.722;2023-03-31T12:51:37;5.07;;;2.07;;
4650;SDS011;2338;49.602;8.722;2023-03-31T12:54:46;9.90;;;1.50;;
4650;SDS011;2338;49.602;8.722;2023-03-31T12:57:41;22.53;;;16.83;;
4650;SDS011;2338;49.602;8.722;2023-03-31T13:00:27;3.73;;;1.53;;
4650;SDS011;2338;49.602;8.722;2023-03-31T13:03:34;6.60;;;1.37;;
4650;SDS011;2338;49.602;8.722;2023-03-31T13:09:48;2.03;;;1.07;;
4650;SDS011;2338;49.602;8.722;2023-03-31T13:12:36;2.93;;;0.93;;
4650;SDS011;2338;49.602;8.722;2023-03-31T13:15:22;5.60;;;2.10;;
4650;SDS011;2338;49.602;8.722;2023-03-31T13:18:12;5.23;;;1.90;;
4650;SDS011;2338;49.602;8.722;2023-03-31T13:21:05;3.20;;;1.23;;
4650;SDS011;2338;49.602;8.722;2023-03-31T13:23:52;3.10;;;0.97;;
4650;SDS011;2338;49.602;8.722;2023-03-31T13:26:45;3.00;;;1.07;;
4650;SDS011;2338;49.602;8.722;2023-03-31T13:29:38;4.40;;;1.20;;
4650;SDS011;2338;49.602;8.722;2023-03-31T13:32:25;6.87;;;1.80;;
4650;SDS011;2338;49.602;8.722;2023-03-31T13:35:13;3.70;;;1.20;;
4650;SDS011;2338;49.602;8.722;2023-03-31T13:38:07;6.13;;;1.23;;
4650;SDS011;2338;49.602;8.722;2023-03-31T13:41:08;5.60;;;1.57;;
4650;SDS011;2338;49.602;8.722;2023-03-31T13:44:25;5.33;;;1.73;;
4650;SDS011;2338;49.602;8.722;2023-03-31T13:47:41;5.00;;;1.70;;
4650;SDS011;2338;49.602;8.722;2023-03-31T13:50:48;12.17;;;5.17;;
4650;SDS011;2338;49.602;8.722;2023-03-31T13:53:53;16.97;;;3.20;;
4650;SDS011;2338;49.602;8.722;2023-03-31T13:56:58;8.53;;;1.77;;
4650;SDS011;2338;49.602;8.722;2023-03-31T14:03:26;7.07;;;1.03;;
4650;SDS011;2338;49.602;8.722;2023-03-31T14:06:22;5.70;;;1.20;;
4650;SDS011;2338;49.602;8.722;2023-03-31T14:09:18;5.03;;;1.33;;
4650;SDS011;2338;49.602;8.722;2023-03-31T14:12:18;6.93;;;2.03;;
4650;SDS011;2338;49.602;8.722;2023-03-31T14:15:05;4.40;;;1.40;;
4650;SDS011;2338;49.602;8.722;2023-03-31T14:18:02;10.33;;;2.07;;
4650;SDS011;2338;49.602;8.722;2023-03-31T14:20:54;6.67;;;2.20;;
4650;SDS011;2338;49.602;8.722;2023-03-31T14:23:54;6.60;;;2.07;;
4650;SDS011;2338;49.602;8.722;2023-03-31T14:26:52;11.60;;;1.87;;
4650;SDS011;2338;49.602;8.722;2023-03-31T14:29:46;8.23;;;1.73;;
4650;SDS011;2338;49.602;8.722;2023-03-31T14:32:42;4.70;;;1.17;;
4650;SDS011;2338;49.602;8.722;2023-03-31T14:35:38;3.77;;;1.20;;
4650;SDS011;2338;49.602;8.722;2023-03-31T14:38:31;6.73;;;1.53;;
4650;SDS011;2338;49.602;8.722;2023-03-31T14:41:18;3.80;;;1.40;;
4650;SDS011;2338;49.602;8.722;2023-03-31T14:44:13;3.93;;;1.00;;
4650;SDS011;2338;49.602;8.722;2023-03-31T14:47:01;4.17;;;1.20;;
4650;SDS011;2338;49.602;8.722;2023-03-31T14:49:47;2.70;;;1.10;;
4650;SDS011;2338;49.602;8.722;2023-03-31T14:52:45;2.80;;;1.20;;
4650;SDS011;2338;49.602;8.722;2023-03-31T14:55:31;5.80;;;1.30;;
4650;SDS011;2338;49.602;8.722;2023-03-31T14:58:20;8.20;;;1.30;;
4650;SDS011;2338;49.602;8.722;2023-03-31T15:01:13;3.77;;;1.40;;
4650;SDS011;2338;49.602;8.722;2023-03-31T15:04:04;7.10;;;1.70;;
4650;SDS011;2338;49.602;8.722;2023-03-31T15:06:52;4.63;;;1.40;;
4650;SDS011;2338;49.602;8.722;2023-03-31T15:09:38;6.93;;;1.43;;
4650;SDS011;2338;49.602;8.722;2023-03-31T15:12:33;3.17;;;1.30;;
4650;SDS011;2338;49.602;8.722;2023-03-31T15:15:21;5.30;;;1.30;;
4650;SDS011;2338;49.602;8.722;2023-03-31T15:18:09;4.57;;;1.10;;
4650;SDS011;2338;49.602;8.722;2023-03-31T15:20:56;6.53;;;1.83;;
4650;SDS011;2338;49.602;8.722;2023-03-31T15:23:42;7.23;;;1.60;;
4650;SDS011;2338;49.602;8.722;2023-03-31T15:26:28;6.90;;;1.63;;
4650;SDS011;2338;49.602;8.722;2023-03-31T15:29:16;8.80;;;1.93;;
4650;SDS011;2338;49.602;8.722;2023-03-31T15:32:06;5.27;;;1.50;;
4650;SDS011;2338;49.602;8.722;2023-03-31T15:34:58;6.57;;;2.10;;
4650;SDS011;2338;49.602;8.722;2023-03-31T15:37:47;3.60;;;1.23;;
4650;SDS011;2338;49.602;8.722;2023-03-31T15:40:35;3.23;;;1.33;;
4650;SDS011;2338;49.602;8.722;2023-03-31T15:43:26;7.20;;;3.80;;
4650;SDS011;2338;49.602;8.722;2023-03-31T15:46:15;8.50;;;2.90;;
4650;SDS011;2338;49.602;8.722;2023-03-31T15:49:04;7.47;;;2.30;;
4650;SDS011;2338;49.602;8.722;2023-03-31T15:52:04;7.40;;;2.00;;
4650;SDS011;2338;49.602;8.722;2023-03-31T15:58:11;8.50;;;2.07;;
4650;SDS011;2338;49.602;8.722;2023-03-31T16:01:00;12.13;;;1.73;;
4650;SDS011;2338;49.602;8.722;2023-03-31T16:03:50;8.33;;;1.70;;
4650;SDS011;2338;49.602;8.722;2023-03-31T16:06:39;5.00;;;1.90;;
4650;SDS011;2338;49.602;8.722;2023-03-31T16:09:38;5.97;;;1.70;;
4650;SDS011;2338;49.602;8.722;2023-03-31T16:12:27;5.60;;;1.80;;
4650;SDS011;2338;49.602;8.722;2023-03-31T16:15:17;9.80;;;1.60;;
4650;SDS011;2338;49.602;8.722;2023-03-31T16:18:07;6.23;;;1.70;;
4650;SDS011;2338;49.602;8.722;2023-03-31T16:20:57;5.27;;;2.00;;
4650;SDS011;2338;49.602;8.722;2023-03-31T16:23:48;4.13;;;1.90;;
4650;SDS011;2338;49.602;8.722;2023-03-31T16:26:37;6.47;;;1.40;;
4650;SDS011;2338;49.602;8.722;2023-03-31T16:29:23;4.93;;;1.60;;
4650;SDS011;2338;49.602;8.722;2023-03-31T16:32:09;10.13;;;2.10;;
4650;SDS011;2338;49.602;8.722;2023-03-31T16:34:58;8.33;;;1.50;;
4650;SDS011;2338;49.602;8.722;2023-03-31T16:37:45;6.50;;;1.37;;
4650;SDS011;2338;49.602;8.722;2023-03-31T16:40:33;7.73;;;1.43;;
4650;SDS011;2338;49.602;8.722;2023-03-31T16:43:22;8.80;;;1.73;;
4650;SDS011;2338;49.602;8.722;2023-03-31T16:46:09;3.47;;;1.47;;
4650;SDS011;2338;49.602;8.722;2023-03-31T16:48:54;4.73;;;1.30;;
4650;SDS011;2338;49.602;8.722;2023-03-31T16:51:40;6.10;;;1.53;;
4650;SDS011;2338;49.602;8.722;2023-03-31T16:54:26;6.97;;;1.93;;
4650;SDS011;2338;49.602;8.722;2023-03-31T16:57:12;5.63;;;1.50;;
4650;SDS011;2338;49.602;8.722;2023-03-31T16:59:59;6.20;;;2.03;;
4650;SDS011;2338;49.602;8.722;2023-03-31T17:02:45;7.80;;;2.30;;
4650;SDS011;2338;49.602;8.722;2023-03-31T17:05:32;3.97;;;1.33;;
4650;SDS011;2338;49.602;8.722;2023-03-31T17:08:22;5.40;;;1.50;;
4650;SDS011;2338;49.602;8.722;2023-03-31T17:11:10;3.10;;;1.33;;
4650;SDS011;2338;49.602;8.722;2023-03-31T17:13:57;4.17;;;1.60;;
4650;SDS011;2338;49.602;8.722;2023-03-31T17:16:44;4.33;;;1.43;;
4650;SDS011;2338;49.602;8.722;2023-03-31T17:19:31;11.30;;;1.23;;
4650;SDS011;2338;49.602;8.722;2023-03-31T17:22:16;7.53;;;1.53;;
4650;SDS011;2338;49.602;8.722;2023-03-31T17:25:02;3.83;;;1.47;;
4650;SDS011;2338;49.602;8.722;2023-03-31T17:27:50;7.83;;;1.37;;
4650;SDS011;2338;49.602;8.722;2023-03-31T17:30:41;4.93;;;1.43;;
4650;SDS011;2338;49.602;8.722;2023-03-31T17:33:32;6.40;;;1.43;;
4650;SDS011;2338;49.602;8.722;2023-03-31T17:36:18;3.13;;;1.00;;
4650;SDS011;2338;49.602;8.722;2023-03-31T17:39:04;5.07;;;1.43;;
4650;SDS011;2338;49.602;8.722;2023-03-31T17:41:50;13.93;;;1.87;;
4650;SDS011;2338;49.602;8.722;2023-03-31T17:44:36;2.70;;;1.27;;
4650;SDS011;2338;49.602;8.722;2023-03-31T17:47:21;4.17;;;1.53;;
4650;SDS011;2338;49.602;8.722;2023-03-31T17:50:09;1.77;;;0.80;;
4650;SDS011;2338;49.602;8.722;2023-03-31T17:52:55;2.80;;;0.83;;